Time;durP1;ratioP1;P1;durP2;ratioP2;P2;SDS_P1;SDS_P2;PMS_P1;PMS_P2;Temp;Humidity;BMP_temperature;BMP_pressure;BME280_temperature;BME280_humidity;BME280_pressure;Samples;Min_cycle;Max_cycle;Signal;HPM_P1;HPM_P2
2023/03/28 00:01:51;;;;;;;8.17;7.47;;;;;;;-143.84;91.18;43927.69;5051710;28;20513;-73
2023/03/28 00:04:21;;;;;;;8.10;7.30;;;;;;;-143.84;91.43;43914.38;5051945;28;20841;-73
2023/03/28 00:06:48;;;;;;;8.80;8.00;;;;;;;-143.84;91.83;43931.50;5051054;28;20821;-73
2023/03/28 00:09:16;;;;;;;7.70;7.00;;;;;;;-143.84;92.17;43927.69;5050725;28;20509;-72
2023/03/28 00:11:44;;;;;;;9.47;8.57;;;;;;;-143.84;92.17;43961.97;5050606;28;20478;-73
2023/03/28 00:14:14;;;;;;;9.47;8.57;;;;;;;-143.84;92.32;43950.53;5051545;28;20444;-73
2023/03/28 00:16:44;;;;;;;8.83;7.93;;;;;;;-143.84;91.80;43944.84;5051338;28;20456;-73
2023/03/28 00:19:14;;;;;;;9.37;8.23;;;;;;;-143.84;91.61;43939.13;5051671;28;20552;-73
2023/03/28 00:21:45;;;;;;;8.17;7.40;;;;;;;-143.84;91.83;43935.31;5051559;28;20456;-73
2023/03/28 00:24:14;;;;;;;8.67;7.87;;;;;;;-143.84;91.49;43904.84;5062343;28;20439;-73
2023/03/28 00:26:42;;;;;;;8.63;7.63;;;;;;;-143.84;91.69;43922.00;5071069;28;20443;-73
2023/03/28 00:29:19;;;;;;;9.20;7.53;;;;;;;-143.84;91.43;43908.66;5071325;28;21011;-73
2023/03/28 00:31:48;;;;;;;14.50;8.90;;;;;;;-143.84;91.23;43906.75;5071164;28;20501;-73
2023/03/28 00:34:16;;;;;;;10.97;8.07;;;;;;;-143.84;91.21;43895.34;5071110;28;20453;-73
2023/03/28 00:36:43;;;;;;;9.00;8.10;;;;;;;-143.84;91.46;43914.38;5071222;28;20451;-73
2023/03/28 00:39:10;;;;;;;8.87;7.97;;;;;;;-143.84;91.21;43912.47;5071366;28;20479;-73
2023/03/28 00:41:40;;;;;;;8.40;7.57;;;;;;;-143.84;91.35;43906.75;5071021;28;20500;-73
2023/03/28 00:44:44;;;;;;;9.40;7.80;;;;;;;-143.84;90.37;43887.72;5070783;28;20983;-73
2023/03/28 00:47:29;;;;;;;8.80;7.90;;;;;;;-143.84;90.63;43878.22;5070369;28;20504;-73
2023/03/28 00:50:01;;;;;;;8.50;7.70;;;;;;;-143.84;90.27;43895.34;5070931;28;20454;-73
2023/03/28 00:52:32;;;;;;;9.93;7.67;;;;;;;-143.84;90.43;43908.66;5070252;28;21126;-73
2023/03/28 00:55:01;;;;;;;8.77;7.87;;;;;;;-143.84;90.22;43882.00;5069824;28;20442;-73
2023/03/28 00:57:29;;;;;;;7.63;6.93;;;;;;;-143.84;89.91;43891.53;5070193;28;20446;-73
2023/03/28 00:59:57;;;;;;;7.90;7.20;;;;;;;-143.84;89.51;43851.56;5069719;28;20854;-73
2023/03/28 01:02:25;;;;;;;8.10;7.47;;;;;;;-143.84;89.46;43868.69;5070404;28;21035;-73
2023/03/28 01:04:58;;;;;;;8.70;7.90;;;;;;;-143.84;89.38;43862.97;5070553;28;20798;-73
2023/03/28 01:07:30;;;;;;;7.87;7.23;;;;;;;-143.84;89.44;43840.13;5069500;28;20821;-73
2023/03/28 01:09:57;;;;;;;7.93;7.23;;;;;;;-143.84;89.32;43847.75;5069320;28;20501;-73
2023/03/28 01:12:25;;;;;;;8.13;7.10;;;;;;;-143.84;89.35;43826.81;5070290;28;20484;-73
2023/03/28 01:14:52;;;;;;;7.87;6.93;;;;;;;-143.84;89.34;43862.97;5070359;28;20450;-72
2023/03/28 01:17:21;;;;;;;7.93;7.23;;;;;;;-143.84;88.98;43840.13;5070012;28;20877;-72
2023/03/28 01:20:03;;;;;;;8.80;7.90;;;;;;;-143.84;88.40;43853.47;5069414;28;20449;-72
2023/03/28 01:22:58;;;;;;;9.00;8.10;;;;;;;-143.84;88.01;43853.47;5069187;28;20445;-72
2023/03/28 01:25:55;;;;;;;7.40;6.77;;;;;;;-143.84;88.13;43838.25;5069432;28;20443;-72
2023/03/28 01:28:41;;;;;;;8.87;7.93;;;;;;;-143.84;87.51;43832.53;5033595;28;20527;-73
2023/03/28 01:31:35;;;;;;;7.57;6.87;;;;;;;-143.84;88.04;43813.50;5069759;28;20486;-72
2023/03/28 01:34:35;;;;;;;8.00;7.20;;;;;;;-143.84;88.13;43805.88;5070041;28;20446;-72
2023/03/28 01:37:24;;;;;;;9.20;8.30;;;;;;;-143.84;87.95;43861.06;5054370;28;20455;-72
2023/03/28 01:40:15;;;;;;;9.37;8.47;;;;;;;-143.84;87.33;43843.94;5069903;28;20983;-73
2023/03/28 01:42:55;;;;;;;9.93;9.03;;;;;;;-143.84;87.28;43861.06;5069906;28;20448;-72
2023/03/28 01:45:32;;;;;;;9.77;8.63;;;;;;;-143.84;86.89;43897.25;5070047;28;20426;-72
2023/03/28 01:48:07;;;;;;;8.80;8.03;;;;;;;-143.84;86.48;43954.34;5069625;28;20512;-73
2023/03/28 01:50:42;;;;;;;10.70;9.70;;;;;;;-143.84;86.49;43920.09;5069882;28;21005;-73
2023/03/28 01:53:20;;;;;;;9.83;8.77;;;;;;;-143.84;86.99;43946.75;5069893;28;20478;-73
2023/03/28 01:55:53;;;;;;;10.10;8.13;;;;;;;-143.84;86.76;43982.91;5069888;28;20442;-73
2023/03/28 01:58:30;;;;;;;9.37;8.50;;;;;;;-143.84;86.22;44068.56;5068669;28;20469;-72
2023/03/28 02:01:06;;;;;;;8.73;7.80;;;;;;;-143.84;85.54;44220.84;5069366;28;20462;-72
2023/03/28 02:03:38;;;;;;;12.13;8.90;;;;;;;-143.84;84.77;44533.09;5069772;28;20429;-72
2023/03/28 02:06:08;;;;;;;9.27;8.37;;;;;;;-143.84;83.59;44767.25;5069492;28;20449;-73
2023/03/28 02:08:40;;;;;;;8.77;8.07;;;;;;;-143.84;83.55;44847.22;5069306;28;20444;-72
2023/03/28 02:11:09;;;;;;;12.30;8.43;;;;;;;-143.84;83.04;44898.66;5069139;28;20481;-73
2023/03/28 02:13:42;;;;;;;8.27;7.57;;;;;;;-143.84;82.89;44927.19;5068385;28;20528;-73
2023/03/28 02:16:11;;;;;;;9.47;8.57;;;;;;;-143.84;83.00;44929.09;5068832;28;20585;-73
2023/03/28 02:18:42;;;;;;;9.37;8.47;;;;;;;-143.84;82.58;44950.06;5068798;28;20437;-73
2023/03/28 02:21:15;;;;;;;9.40;8.50;;;;;;;-143.84;82.66;44934.81;5069243;28;20520;-73
2023/03/28 02:23:48;;;;;;;8.47;7.70;;;;;;;-143.84;82.69;44988.13;5068983;28;20452;-73
2023/03/28 02:26:16;;;;;;;9.30;8.37;;;;;;;-143.84;82.15;44974.81;5069412;28;20437;-73
2023/03/28 02:28:45;;;;;;;9.17;8.37;;;;;;;-143.84;82.20;44974.81;5069097;28;20535;-73
2023/03/28 02:31:15;;;;;;;10.23;7.53;;;;;;;-143.84;81.55;45049.06;5069275;28;20532;-73
2023/03/28 02:33:45;;;;;;;9.20;8.20;;;;;;;-143.84;81.34;45022.41;5068990;28;20498;-73
2023/03/28 02:36:30;;;;;;;8.87;7.97;;;;;;;-143.84;81.30;45014.78;5069399;28;20449;-73
2023/03/28 02:39:18;;;;;;;9.23;8.33;;;;;;;-143.84;81.04;45049.06;5068963;28;20872;-73
2023/03/28 02:42:00;;;;;;;19.83;9.43;;;;;;;-143.84;80.92;45092.88;5068990;28;20464;-73
2023/03/28 02:44:51;;;;;;;10.13;7.90;;;;;;;-143.84;80.43;45110.00;5069229;28;20442;-73
2023/03/28 02:47:21;;;;;;;7.93;7.23;;;;;;;-143.84;80.07;45094.78;5069093;28;20437;-73
2023/03/28 02:50:00;;;;;;;8.50;7.70;;;;;;;-143.84;80.87;45056.69;5069115;28;20574;-73
2023/03/28 02:52:39;;;;;;;9.50;8.63;;;;;;;-143.84;80.99;45098.56;5069182;28;20492;-73
2023/03/28 02:55:16;;;;;;;10.73;9.63;;;;;;;-143.84;81.07;45068.13;5068515;28;20864;-73
2023/03/28 02:57:48;;;;;;;10.03;9.00;;;;;;;-143.84;80.91;45111.91;5068225;28;20480;-73
2023/03/28 03:00:19;;;;;;;10.00;8.97;;;;;;;-143.84;80.82;45144.28;5069024;28;21159;-73
2023/03/28 03:02:50;;;;;;;10.90;8.40;;;;;;;-143.84;80.64;45081.44;5068808;28;20445;-73
2023/03/28 03:05:19;;;;;;;12.63;9.17;;;;;;;-143.84;80.96;45094.78;5069004;28;20450;-73
2023/03/28 03:07:48;;;;;;;10.53;8.30;;;;;;;-143.84;80.74;45134.75;5068905;28;20433;-73
2023/03/28 03:10:17;;;;;;;8.40;7.60;;;;;;;-143.84;80.86;45108.09;5071276;28;20983;-73
2023/03/28 03:12:45;;;;;;;8.03;7.40;;;;;;;-143.84;80.99;45111.91;5072800;28;21059;-73
2023/03/28 03:15:15;;;;;;;8.33;7.13;;;;;;;-143.84;80.70;45138.56;5072670;28;20432;-73
2023/03/28 03:17:43;;;;;;;7.10;6.43;;;;;;;-143.84;81.23;45111.91;5072717;28;20558;-73
2023/03/28 03:20:11;;;;;;;9.47;6.90;;;;;;;-143.84;80.59;45119.53;5071848;28;20918;-75
2023/03/28 03:22:38;;;;;;;8.07;7.27;;;;;;;-143.84;80.68;45123.34;5052862;28;20515;-72
2023/03/28 03:25:07;;;;;;;7.30;6.47;;;;;;;-143.84;80.49;45098.56;5051797;28;20433;-72
2023/03/28 03:27:38;;;;;;;7.20;6.50;;;;;;;-143.84;80.17;45130.94;5052652;28;20452;-72
2023/03/28 03:30:06;;;;;;;6.87;6.27;;;;;;;-143.84;79.74;45155.69;5068161;28;20908;-72
2023/03/28 03:32:33;;;;;;;5.87;5.37;;;;;;;-143.84;79.59;45148.09;5071243;28;20861;-72
2023/03/28 03:35:00;;;;;;;5.20;4.80;;;;;;;-143.84;79.01;45132.84;5071455;28;20996;-72
2023/03/28 03:37:28;;;;;;;6.40;5.80;;;;;;;-143.84;79.73;45172.84;5071354;28;20482;-72
2023/03/28 03:39:55;;;;;;;5.70;4.60;;;;;;;-143.84;79.27;45140.47;5070954;28;20444;-72
2023/03/28 03:42:23;;;;;;;4.60;4.30;;;;;;;-143.84;78.36;45180.47;5071454;28;20455;-72
2023/03/28 03:44:53;;;;;;;3.93;3.73;;;;;;;-143.84;77.57;45205.22;5071002;28;20459;-72
2023/03/28 03:47:20;;;;;;;4.83;3.73;;;;;;;-143.84;76.96;45188.06;5072664;28;20456;-71
2023/03/28 03:49:48;;;;;;;3.00;2.80;;;;;;;-143.84;76.80;45178.56;5071001;28;20452;-71
2023/03/28 03:52:15;;;;;;;3.40;3.10;;;;;;;-143.84;76.89;45203.31;5066474;28;20847;-71
2023/03/28 03:54:42;;;;;;;2.80;2.70;;;;;;;-143.84;77.59;45180.47;5071458;28;20440;-77
2023/03/28 03:57:10;;;;;;;3.03;2.80;;;;;;;-143.84;77.00;45178.56;5072091;28;20444;-75
2023/03/28 03:59:37;;;;;;;3.47;2.53;;;;;;;-143.84;77.02;45212.84;5072076;28;21014;-75
2023/03/28 04:02:05;;;;;;;2.53;2.33;;;;;;;-143.84;76.12;45188.06;5071813;28;20547;-75
2023/03/28 04:04:32;;;;;;;3.67;2.87;;;;;;;-143.84;76.53;45212.84;5071894;28;20453;-75
2023/03/28 04:07:01;;;;;;;2.53;2.23;;;;;;;-143.84;76.33;45218.53;5072106;28;20457;-75
2023/03/28 04:09:28;;;;;;;3.60;3.30;;;;;;;-143.84;76.39;45178.56;5071385;28;20464;-75
2023/03/28 04:11:55;;;;;;;5.33;3.10;;;;;;;-143.84;76.80;45205.22;5071909;28;20444;-75
2023/03/28 04:14:23;;;;;;;3.00;2.80;;;;;;;-143.84;76.56;45201.41;5069869;28;20452;-75
2023/03/28 04:16:52;;;;;;;3.20;3.00;;;;;;;-143.84;76.83;45201.41;5071654;28;20783;-75
2023/03/28 04:19:23;;;;;;;7.10;2.73;;;;;;;-143.84;76.70;45205.22;5071654;28;20534;-75
2023/03/28 04:21:51;;;;;;;4.97;2.80;;;;;;;-143.84;76.30;45258.53;5068698;28;20464;-75
2023/03/28 04:24:23;;;;;;;3.10;2.90;;;;;;;-143.84;76.38;45220.44;5070470;28;20448;-75
2023/03/28 04:26:54;;;;;;;3.13;2.83;;;;;;;-143.84;76.03;45176.66;5070608;28;20453;-75
2023/03/28 04:29:29;;;;;;;2.70;2.50;;;;;;;-143.84;75.72;45209.03;5071598;28;20463;-75
2023/03/28 04:31:57;;;;;;;2.67;2.47;;;;;;;-143.84;75.74;45170.94;5070032;28;20452;-76
2023/03/28 04:34:28;;;;;;;3.23;2.13;;;;;;;-143.84;75.81;45170.94;5071345;28;20526;-74
2023/03/28 04:37:00;;;;;;;2.43;2.23;;;;;;;-143.84;75.70;45188.06;5070950;28;20456;-75
2023/03/28 04:39:28;;;;;;;3.13;2.93;;;;;;;-143.84;75.60;45176.66;5071183;28;20464;-78
2023/03/28 04:41:55;;;;;;;3.50;3.20;;;;;;;-143.84;75.67;45210.94;5071447;28;20789;-79
2023/03/28 04:44:22;;;;;;;3.33;3.03;;;;;;;-143.84;75.90;45231.88;5070377;28;20457;-77
2023/03/28 04:46:50;;;;;;;3.30;3.10;;;;;;;-143.84;75.27;45172.84;5069588;28;20449;-78
2023/03/28 04:49:18;;;;;;;3.33;3.03;;;;;;;-143.84;75.27;45195.69;5070176;28;20463;-77
2023/03/28 04:51:47;;;;;;;3.17;2.63;;;;;;;-143.84;75.29;45199.50;5070942;28;20448;-77
2023/03/28 04:54:14;;;;;;;3.83;2.80;;;;;;;-143.84;75.44;45210.94;5071040;28;20437;-77
2023/03/28 04:56:44;;;;;;;4.07;3.00;;;;;;;-143.84;75.39;45218.53;5068467;28;21014;-77
2023/03/28 04:59:12;;;;;;;3.27;2.97;;;;;;;-143.84;75.21;45195.69;5067743;28;20444;-77
2023/03/28 05:01:39;;;;;;;3.70;3.40;;;;;;;-143.84;75.30;45239.50;5070817;28;20452;-77
2023/03/28 05:04:07;;;;;;;4.53;3.10;;;;;;;-143.84;75.14;45193.78;5071059;28;20447;-78
2023/03/28 05:06:34;;;;;;;3.20;2.93;;;;;;;-143.84;75.48;45218.53;5069786;28;20517;-77
2023/03/28 05:09:04;;;;;;;4.73;3.10;;;;;;;-143.84;75.31;45203.31;5070764;28;20461;-77
2023/03/28 05:11:32;;;;;;;3.40;3.20;;;;;;;-143.84;75.52;45188.06;5070530;28;21366;-77
2023/03/28 05:13:59;;;;;;;9.43;3.10;;;;;;;-143.84;75.78;45193.78;5070460;28;20480;-77
2023/03/28 05:16:26;;;;;;;3.90;3.60;;;;;;;-143.84;75.16;45222.34;5070640;28;20441;-77
2023/03/28 05:18:55;;;;;;;12.93;3.50;;;;;;;-143.84;75.02;45233.78;5070519;28;20452;-78
2023/03/28 05:21:22;;;;;;;3.50;3.23;;;;;;;-143.84;75.27;45229.97;5070531;28;20946;-77
2023/03/28 05:23:49;;;;;;;16.07;3.80;;;;;;;-143.84;74.98;45205.22;5070293;28;20463;-77
2023/03/28 05:26:18;;;;;;;8.63;3.70;;;;;;;-143.84;74.31;45191.88;5069828;28;20954;-77
2023/03/28 05:28:45;;;;;;;5.67;3.63;;;;;;;-143.84;74.63;45209.03;5069079;28;20448;-77
2023/03/28 05:31:12;;;;;;;5.53;3.53;;;;;;;-143.84;74.10;45203.31;5066773;28;20449;-77
2023/03/28 05:33:39;;;;;;;4.53;3.33;;;;;;;-143.84;73.90;45220.44;5068932;28;20477;-77
2023/03/28 05:36:07;;;;;;;14.23;3.87;;;;;;;-143.84;72.66;45222.34;5068977;28;21221;-78
2023/03/28 05:38:35;;;;;;;5.47;4.00;;;;;;;-143.84;70.99;45201.41;5069762;28;20460;-77
2023/03/28 05:41:03;;;;;;;4.23;3.83;;;;;;;-143.84;70.53;45209.03;5069078;28;21097;-77
2023/03/28 05:43:32;;;;;;;7.67;3.97;;;;;;;-143.84;69.06;45218.53;5068201;28;20453;-77
2023/03/28 05:45:59;;;;;;;8.33;4.00;;;;;;;-143.84;69.00;45222.34;5068339;28;20449;-78
2023/03/28 05:48:26;;;;;;;6.77;2.90;;;;;;;-143.84;67.72;45203.31;5069194;28;20444;-77
2023/03/28 05:50:53;;;;;;;3.13;2.93;;;;;;;-143.84;67.35;45189.97;5068044;28;20457;-78
2023/03/28 05:53:20;;;;;;;12.10;3.00;;;;;;;-143.84;67.26;45207.13;5068027;28;20476;-78
2023/03/28 05:55:49;;;;;;;7.03;3.67;;;;;;;-143.84;67.41;45218.53;5066412;28;20494;-78
2023/03/28 05:58:16;;;;;;;3.43;3.20;;;;;;;-143.84;67.38;45229.97;5070403;28;20966;-78
2023/03/28 06:00:45;;;;;;;4.30;3.90;;;;;;;-143.84;67.56;45193.78;5070219;28;20460;-78
2023/03/28 06:03:14;;;;;;;6.47;4.33;;;;;;;-143.84;67.64;45210.94;5070027;28;20962;-78
2023/03/28 06:05:41;;;;;;;4.23;3.83;;;;;;;-143.84;68.27;45243.31;5068530;28;20440;-78
2023/03/28 06:08:09;;;;;;;7.10;4.00;;;;;;;-143.84;68.89;45220.44;5068672;28;20449;-78
2023/03/28 06:10:36;;;;;;;4.53;4.23;;;;;;;-143.84;69.32;45222.34;5069644;28;20515;-78
2023/03/28 06:13:03;;;;;;;6.23;4.50;;;;;;;-143.84;69.40;45195.69;5069646;28;21028;-78
2023/03/28 06:15:31;;;;;;;5.00;3.73;;;;;;;-143.84;68.58;45220.44;5069522;28;20432;-78
2023/03/28 06:17:59;;;;;;;9.60;4.10;;;;;;;-143.84;68.52;45216.63;5069711;28;20746;-78
2023/03/28 06:20:26;;;;;;;3.80;3.60;;;;;;;-143.84;69.30;45226.16;5070220;28;20444;-78
2023/03/28 06:22:54;;;;;;;8.50;4.40;;;;;;;-143.84;69.18;45228.06;5069881;28;20984;-78
2023/03/28 06:25:21;;;;;;;4.60;4.30;;;;;;;-143.84;68.35;45235.69;5070289;28;21129;-78
2023/03/28 06:27:48;;;;;;;4.23;3.83;;;;;;;-143.84;68.06;45222.34;5069471;28;20455;-77
2023/03/28 06:30:15;;;;;;;15.83;4.77;;;;;;;-143.84;67.44;45218.53;5068919;28;20441;-77
2023/03/28 06:32:43;;;;;;;6.87;3.80;;;;;;;-143.84;66.34;45201.41;5066823;28;21321;-77
2023/03/28 06:35:12;;;;;;;6.27;4.43;;;;;;;-143.84;66.04;45207.13;5068197;28;21224;-77
2023/03/28 06:37:39;;;;;;;3.50;3.30;;;;;;;-143.84;64.19;45191.88;5068318;28;20438;-77
2023/03/28 06:40:07;;;;;;;5.20;3.70;;;;;;;-143.84;63.97;45189.97;5068391;28;20923;-77
2023/03/28 06:42:34;;;;;;;5.00;3.10;;;;;;;-143.84;63.36;45220.44;5068536;28;20445;-75
2023/03/28 06:45:02;;;;;;;5.30;3.47;;;;;;;-143.84;62.18;45205.22;5068688;28;20503;-75
2023/03/28 06:47:30;;;;;;;4.20;3.90;;;;;;;-143.84;61.21;45184.25;5066839;28;20461;-75
2023/03/28 06:49:57;;;;;;;5.60;3.17;;;;;;;-143.84;60.45;45209.03;5069011;28;20973;-75
2023/03/28 06:52:25;;;;;;;3.50;3.30;;;;;;;-143.84;59.27;45161.41;5068826;28;20978;-75
2023/03/28 06:54:53;;;;;;;6.23;3.40;;;;;;;-143.84;60.70;45195.69;5068571;28;20481;-75
2023/03/28 06:57:20;;;;;;;4.17;3.77;;;;;;;-143.84;59.22;45201.41;5068785;28;20534;-75
2023/03/28 06:59:47;;;;;;;3.60;3.27;;;;;;;-143.84;58.53;45178.56;5068494;28;21097;-75
2023/03/28 07:02:14;;;;;;;5.27;3.10;;;;;;;-143.84;56.98;45189.97;5068628;28;20842;-75
2023/03/28 07:04:41;;;;;;;4.00;3.70;;;;;;;-143.84;57.83;45195.69;5068627;28;20445;-75
2023/03/28 07:07:09;;;;;;;3.30;3.00;;;;;;;-143.84;57.02;45189.97;5069071;28;20459;-75
2023/03/28 07:09:37;;;;;;;3.40;3.20;;;;;;;-143.84;58.70;45195.69;5068569;28;20471;-74
2023/03/28 07:12:05;;;;;;;3.50;3.30;;;;;;;-143.84;58.90;45224.25;5068016;28;20451;-75
2023/03/28 07:14:32;;;;;;;3.77;3.47;;;;;;;-143.84;57.76;45209.03;5068406;28;20481;-75
2023/03/28 07:16:59;;;;;;;3.90;3.50;;;;;;;-143.84;58.54;45191.88;5068417;28;20465;-75
2023/03/28 07:19:26;;;;;;;4.60;4.20;;;;;;;-143.84;58.75;45228.06;5068930;28;20446;-74
2023/03/28 07:21:54;;;;;;;3.20;3.00;;;;;;;-143.84;59.69;45210.94;5068763;28;21020;-75
2023/03/28 07:24:21;;;;;;;3.73;3.50;;;;;;;-143.84;60.30;45165.22;5068244;28;20450;-74
2023/03/28 07:26:50;;;;;;;8.37;3.53;;;;;;;-143.84;60.61;45207.13;5068419;28;20510;-75
2023/03/28 07:29:17;;;;;;;5.83;3.50;;;;;;;-143.84;61.52;45189.97;5065961;28;20625;-75
2023/03/28 07:31:44;;;;;;;3.60;3.40;;;;;;;-143.84;60.96;45210.94;5067396;28;20461;-75
2023/03/28 07:34:11;;;;;;;3.80;3.50;;;;;;;-143.84;61.75;45191.88;5068193;28;20485;-75
2023/03/28 07:36:38;;;;;;;5.00;2.97;;;;;;;-143.84;61.39;45209.03;5068788;28;20425;-74
2023/03/28 07:39:07;;;;;;;3.37;3.17;;;;;;;-143.84;60.75;45235.69;5068386;28;20510;-75
2023/03/28 07:41:34;;;;;;;3.47;3.27;;;;;;;-143.84;60.17;45189.97;5068218;28;20568;-75
2023/03/28 07:44:02;;;;;;;3.47;3.17;;;;;;;-143.84;60.17;45212.84;5068238;28;20462;-74
2023/03/28 07:46:31;;;;;;;3.70;3.40;;;;;;;-143.84;60.71;45199.50;5068236;28;20507;-75
2023/03/28 07:48:59;;;;;;;3.53;3.23;;;;;;;-143.84;61.66;45191.88;5068196;28;20457;-75
2023/03/28 07:51:26;;;;;;;3.33;3.13;;;;;;;-143.84;58.40;45212.84;5068389;28;20790;-75
2023/03/28 07:53:53;;;;;;;4.77;3.90;;;;;;;-143.84;58.99;45205.22;5068390;28;20473;-74
2023/03/28 07:56:21;;;;;;;9.93;3.80;;;;;;;-143.84;59.92;45209.03;5068961;28;20455;-75
2023/03/28 07:58:48;;;;;;;4.60;3.40;;;;;;;-143.84;58.81;45188.06;5072163;28;20452;-74
2023/03/28 08:01:18;;;;;;;7.47;3.60;;;;;;;-143.84;60.02;45180.47;5071946;28;20556;-74
2023/03/28 08:03:45;;;;;;;3.40;3.20;;;;;;;-143.84;59.90;45188.06;5071608;28;20461;-75
2023/03/28 08:06:14;;;;;;;2.97;2.87;;;;;;;-143.84;61.25;45191.88;5071546;28;20458;-74
2023/03/28 08:08:41;;;;;;;3.60;3.40;;;;;;;-143.84;61.84;45176.66;5071146;28;20498;-74
2023/03/28 08:11:11;;;;;;;3.97;3.30;;;;;;;-143.84;60.87;45212.84;5071196;28;20477;-74
2023/03/28 08:13:38;;;;;;;3.67;3.10;;;;;;;-143.84;60.21;45197.59;5070665;28;20473;-76
2023/03/28 08:16:05;;;;;;;6.87;3.93;;;;;;;-143.84;60.30;45201.41;5069969;28;20458;-67
2023/03/28 08:18:34;;;;;;;4.80;3.87;;;;;;;-143.84;61.58;45207.13;5071120;28;20453;-67
2023/03/28 08:21:03;;;;;;;3.60;3.40;;;;;;;-143.84;62.85;45186.16;5071872;28;20515;-67
2023/03/28 08:23:31;;;;;;;3.47;3.27;;;;;;;-143.84;61.75;45210.94;5072337;28;20445;-67
2023/03/28 08:26:03;;;;;;;4.70;4.10;;;;;;;-143.84;62.81;45165.22;5071008;28;20456;-67
2023/03/28 08:28:33;;;;;;;7.03;4.00;;;;;;;-143.84;61.10;45209.03;5071917;28;20517;-67
2023/03/28 08:31:00;;;;;;;5.30;3.53;;;;;;;-143.84;60.41;45205.22;5070366;28;20449;-67
2023/03/28 08:33:27;;;;;;;4.20;3.87;;;;;;;-143.84;62.00;45205.22;5072197;28;21299;-67
2023/03/28 08:35:56;;;;;;;4.80;3.53;;;;;;;-143.84;61.93;45176.66;5072113;28;20552;-67
2023/03/28 08:38:24;;;;;;;4.03;3.40;;;;;;;-143.84;62.25;45186.16;5071896;28;20536;-67
2023/03/28 08:41:01;;;;;;;4.30;4.00;;;;;;;-143.84;62.34;45193.78;5069247;28;20434;-67
2023/03/28 08:43:50;;;;;;;4.40;4.10;;;;;;;-143.84;61.52;45218.53;5068981;28;20445;-67
2023/03/28 08:46:19;;;;;;;4.10;3.80;;;;;;;-143.84;60.70;45201.41;5069894;28;20430;-66
2023/03/28 08:48:48;;;;;;;6.40;4.00;;;;;;;-143.84;62.37;45201.41;5070884;28;20441;-67
2023/03/28 08:51:22;;;;;;;4.83;4.10;;;;;;;-143.84;60.92;45191.88;5070423;28;20454;-67
2023/03/28 08:53:55;;;;;;;5.70;3.90;;;;;;;-143.84;60.52;45195.69;5070563;28;20477;-66
2023/03/28 08:56:22;;;;;;;3.73;3.43;;;;;;;-143.84;60.23;45203.31;5071703;28;20513;-67
2023/03/28 08:58:58;;;;;;;3.90;3.60;;;;;;;-143.84;60.41;45207.13;5071804;28;21015;-67
2023/03/28 09:01:31;;;;;;;4.57;3.53;;;;;;;-143.84;60.76;45174.75;5071309;28;20527;-67
2023/03/28 09:03:59;;;;;;;3.33;3.13;;;;;;;-143.84;60.38;45210.94;5071566;28;20461;-67
2023/03/28 09:06:35;;;;;;;3.77;3.57;;;;;;;-143.84;61.40;45176.66;5071511;28;20445;-66
2023/03/28 09:09:23;;;;;;;4.20;3.80;;;;;;;-143.84;61.23;45189.97;5071579;28;20538;-66
2023/03/28 09:12:02;;;;;;;14.73;3.70;;;;;;;-143.84;61.48;45212.84;5051834;28;20443;-66
2023/03/28 09:14:54;;;;;;;7.40;3.23;;;;;;;-143.84;62.56;45220.44;5051635;28;20525;-67
2023/03/28 09:17:29;;;;;;;3.40;3.20;;;;;;;-143.84;60.77;45193.78;5049391;28;20450;-67
2023/03/28 09:20:11;;;;;;;3.40;3.20;;;;;;;-143.84;60.13;45216.63;5051453;28;20528;-67
2023/03/28 09:22:51;;;;;;;4.10;3.70;;;;;;;-143.84;59.47;45222.34;5050671;28;20451;-67
2023/03/28 09:25:31;;;;;;;4.03;3.70;;;;;;;-143.84;59.50;45199.50;5048503;28;20544;-67
2023/03/28 09:28:10;;;;;;;3.00;2.70;;;;;;;-143.84;58.28;45191.88;5049704;28;20532;-67
2023/03/28 09:30:41;;;;;;;3.90;2.53;;;;;;;-143.84;60.09;45195.69;5050563;28;20442;-67
2023/03/28 09:33:14;;;;;;;4.40;2.93;;;;;;;-143.84;58.42;45197.59;5051522;28;20512;-67
2023/03/28 09:35:43;;;;;;;2.87;2.67;;;;;;;-143.84;58.14;45212.84;5050645;28;20487;-67
2023/03/28 09:38:20;;;;;;;4.53;3.13;;;;;;;-143.84;56.07;45193.78;5051191;28;20899;-67
2023/03/28 09:40:50;;;;;;;3.87;2.80;;;;;;;-143.84;54.96;45186.16;5047271;28;20448;-67
2023/03/28 09:43:25;;;;;;;8.73;2.93;;;;;;;-143.84;55.22;45176.66;5047418;28;20458;-67
2023/03/28 09:45:59;;;;;;;2.73;2.53;;;;;;;-143.84;55.34;45226.16;5051082;28;20457;-67
2023/03/28 09:48:29;;;;;;;3.53;2.73;;;;;;;-143.84;54.81;45205.22;5051110;28;20454;-67
2023/03/28 09:50:57;;;;;;;3.17;2.60;;;;;;;-143.84;55.34;45207.13;5050791;28;20501;-67
2023/03/28 09:53:28;;;;;;;2.33;2.23;;;;;;;-143.84;54.94;45212.84;5050702;28;20454;-67
2023/03/28 09:55:57;;;;;;;2.93;2.63;;;;;;;-143.84;54.27;45197.59;5047806;28;20458;-67
2023/03/28 09:58:25;;;;;;;2.40;2.30;;;;;;;-143.84;54.43;45193.78;5047951;28;20445;-67
2023/03/28 10:00:54;;;;;;;3.20;2.90;;;;;;;-143.84;55.72;45209.03;5047625;28;20533;-67
2023/03/28 10:03:28;;;;;;;4.17;2.90;;;;;;;-143.84;56.16;45205.22;5050155;28;20535;-67
2023/03/28 10:05:57;;;;;;;7.03;2.70;;;;;;;-143.84;56.31;45189.97;5047470;28;20951;-67
2023/03/28 10:08:31;;;;;;;3.20;2.90;;;;;;;-143.84;56.61;45201.41;5050027;28;20506;-68
2023/03/28 10:11:03;;;;;;;4.23;2.90;;;;;;;-143.84;57.31;45176.66;5061483;28;20496;-67
2023/03/28 10:13:37;;;;;;;3.03;2.83;;;;;;;-143.84;56.45;45212.84;5066633;28;20456;-67
2023/03/28 10:16:05;;;;;;;3.40;3.20;;;;;;;-143.84;56.89;45193.78;5067785;28;20441;-67
2023/03/28 10:18:33;;;;;;;4.90;3.20;;;;;;;-143.84;57.51;45226.16;5068602;28;20994;-67
2023/03/28 10:21:13;;;;;;;4.57;2.87;;;;;;;-143.84;57.36;45170.94;5066844;28;20458;-68
2023/03/28 10:23:48;;;;;;;6.37;3.10;;;;;;;-143.84;58.28;45216.63;5069590;28;20449;-67
2023/03/28 10:26:23;;;;;;;5.30;3.10;;;;;;;-143.84;57.64;45169.03;5067848;28;20520;-67
2023/03/28 10:28:53;;;;;;;3.00;2.70;;;;;;;-143.84;57.53;45189.97;5068135;28;20445;-67
2023/03/28 10:31:28;;;;;;;3.83;3.23;;;;;;;-143.84;58.83;45201.41;5065962;28;20453;-68
2023/03/28 10:33:56;;;;;;;3.00;2.80;;;;;;;-143.84;59.49;45169.03;5068848;28;20446;-67
2023/03/28 10:36:30;;;;;;;3.90;3.60;;;;;;;-143.84;60.31;45199.50;5068925;28;20520;-68
2023/03/28 10:38:59;;;;;;;3.77;3.57;;;;;;;-143.84;59.94;45205.22;5068442;28;21300;-67
2023/03/28 10:41:28;;;;;;;4.10;3.80;;;;;;;-143.84;59.82;45180.47;5068920;28;21040;-68
2023/03/28 10:43:56;;;;;;;3.80;3.43;;;;;;;-143.84;61.01;45197.59;5068072;28;20479;-67
2023/03/28 10:46:30;;;;;;;5.47;3.73;;;;;;;-143.84;61.46;45207.13;5069168;28;20452;-67
2023/03/28 10:49:02;;;;;;;7.33;4.07;;;;;;;-143.84;61.60;45214.72;5068185;28;20897;-67
2023/03/28 10:51:31;;;;;;;3.30;2.57;;;;;;;-143.84;61.49;45188.06;5067246;28;20452;-67
2023/03/28 10:54:36;;;;;;;10.13;3.87;;;;;;;-143.84;61.78;45197.59;5068507;28;20794;-67
2023/03/28 10:57:13;;;;;;;3.63;3.40;;;;;;;-143.84;61.34;45207.13;5068821;28;20450;-67
2023/03/28 10:59:49;;;;;;;6.40;3.60;;;;;;;-143.84;62.10;45203.31;5070315;28;20791;-67
2023/03/28 11:02:35;;;;;;;4.37;3.97;;;;;;;-143.84;61.78;45178.56;5069971;28;20456;-67
2023/03/28 11:05:12;;;;;;;4.00;3.70;;;;;;;-143.84;60.63;45205.22;5070128;28;20464;-67
2023/03/28 11:07:44;;;;;;;9.93;3.77;;;;;;;-143.84;61.23;45178.56;5069529;28;20457;-67
2023/03/28 11:10:22;;;;;;;6.13;5.50;;;;;;;-143.84;61.09;45205.22;5070614;28;20918;-67
2023/03/28 11:13:02;;;;;;;7.70;4.30;;;;;;;-143.84;61.69;45218.53;5066632;28;20458;-67
2023/03/28 11:15:37;;;;;;;4.63;4.17;;;;;;;-143.84;60.82;45174.75;5067800;28;20508;-67
2023/03/28 11:18:21;;;;;;;6.17;5.20;;;;;;;-143.84;60.79;45197.59;5069753;28;20450;-67
2023/03/28 11:20:55;;;;;;;7.27;4.23;;;;;;;-143.84;61.10;45170.94;5069829;28;20448;-67
2023/03/28 11:23:43;;;;;;;6.73;4.63;;;;;;;-143.84;60.93;45226.16;5069336;28;20458;-67
2023/03/28 11:26:15;;;;;;;6.00;5.10;;;;;;;-143.84;61.49;45188.06;5069023;28;20982;-67
2023/03/28 11:28:58;;;;;;;7.60;5.47;;;;;;;-143.84;61.86;45207.13;5070084;28;21004;-67
2023/03/28 11:31:29;;;;;;;7.60;5.00;;;;;;;-143.84;61.17;45155.69;5069597;28;20537;-67
2023/03/28 11:34:01;;;;;;;4.63;4.30;;;;;;;-143.84;61.85;45210.94;5073596;28;20521;-67
2023/03/28 11:36:34;;;;;;;8.83;4.20;;;;;;;-143.84;61.76;45235.69;5073625;28;20520;-67